Time;durP1;ratioP1;P1;durP2;ratioP2;P2;SDS_P1;SDS_P2;PMS_P1;PMS_P2;Temp;Humidity;BMP_temperature;BMP_pressure;BME280_temperature;BME280_humidity;BME280_pressure;Samples;Min_cycle;Max_cycle;Signal;HPM_P1;HPM_P2
2023/04/29 00:01:21;;;;;;;23.90;16.77;;;10.20;99.90;;;;;;4993364;28;20287;-76
2023/04/29 00:03:48;;;;;;;24.43;17.60;;;10.20;99.90;;;;;;5012236;28;20908;-77
2023/04/29 00:06:15;;;;;;;26.33;17.20;;;10.20;99.90;;;;;;5013489;28;20199;-78
2023/04/29 00:08:42;;;;;;;23.23;15.83;;;10.20;99.90;;;;;;5011684;28;20676;-77
2023/04/29 00:11:09;;;;;;;20.73;16.63;;;10.20;99.90;;;;;;5001784;28;20212;-76
2023/04/29 00:13:39;;;;;;;25.20;15.90;;;10.10;99.90;;;;;;4993454;28;20231;-76
2023/04/29 00:16:07;;;;;;;24.27;16.10;;;10.10;99.90;;;;;;4993535;28;20208;-77
2023/04/29 00:18:35;;;;;;;22.17;16.60;;;10.10;99.90;;;;;;4994147;28;20235;-77
2023/04/29 00:21:04;;;;;;;23.83;16.00;;;10.20;99.90;;;;;;5013530;28;20207;-77
2023/04/29 00:23:31;;;;;;;24.37;16.27;;;10.10;99.90;;;;;;5011964;28;20227;-77
2023/04/29 00:25:58;;;;;;;19.57;14.80;;;10.10;99.90;;;;;;5012145;28;20286;-77
2023/04/29 00:28:25;;;;;;;21.53;15.23;;;10.10;99.90;;;;;;5013522;28;20205;-78
2023/04/29 00:30:54;;;;;;;22.50;14.53;;;10.10;99.90;;;;;;5012200;28;20623;-77
2023/04/29 00:33:21;;;;;;;23.27;14.50;;;10.10;99.90;;;;;;5012831;28;20234;-77
2023/04/29 00:35:48;;;;;;;17.97;14.67;;;10.00;99.90;;;;;;5011992;28;20305;-76
2023/04/29 00:38:15;;;;;;;23.10;14.17;;;10.00;99.90;;;;;;5012747;28;20278;-77
2023/04/29 00:40:43;;;;;;;20.00;13.40;;;10.00;99.90;;;;;;5012928;28;20265;-77
2023/04/29 00:43:10;;;;;;;19.03;13.37;;;10.00;99.90;;;;;;5011243;28;20219;-77
2023/04/29 00:45:37;;;;;;;20.50;14.13;;;10.10;99.90;;;;;;5013252;28;20254;-77
2023/04/29 00:48:06;;;;;;;20.23;13.43;;;10.10;99.90;;;;;;5010964;28;20535;-77
2023/04/29 00:50:33;;;;;;;19.13;13.00;;;10.10;99.90;;;;;;5011856;28;20250;-78
2023/04/29 00:53:01;;;;;;;19.43;14.10;;;10.10;99.90;;;;;;5012813;28;20206;-77
2023/04/29 00:55:28;;;;;;;20.23;13.87;;;10.10;99.90;;;;;;5012711;28;20670;-77
2023/04/29 00:57:56;;;;;;;20.47;14.57;;;10.10;99.90;;;;;;5010896;28;20602;-78
2023/04/29 01:00:25;;;;;;;21.90;14.57;;;10.10;99.90;;;;;;5012135;28;20788;-77
2023/04/29 01:02:53;;;;;;;21.87;14.30;;;10.10;99.90;;;;;;5011085;28;20227;-77
2023/04/29 01:05:22;;;;;;;20.07;13.70;;;10.10;99.90;;;;;;5012085;28;20199;-77
2023/04/29 01:07:58;;;;;;;20.00;13.70;;;10.20;99.90;;;;;;5011609;28;20211;-77
2023/04/29 01:10:29;;;;;;;23.70;15.43;;;10.10;99.90;;;;;;5012786;28;20278;-76
2023/04/29 01:13:06;;;;;;;20.83;14.90;;;10.10;99.90;;;;;;5010989;28;20199;-76
2023/04/29 01:15:39;;;;;;;27.57;15.43;;;10.10;99.90;;;;;;5010612;28;20192;-77
2023/04/29 01:18:12;;;;;;;21.60;15.43;;;10.10;99.90;;;;;;5011874;28;20275;-76
2023/04/29 01:20:43;;;;;;;24.53;14.93;;;10.00;99.90;;;;;;5012371;28;20615;-77
2023/04/29 01:23:11;;;;;;;24.77;15.03;;;10.10;99.90;;;;;;5010807;28;20266;-77
2023/04/29 01:25:39;;;;;;;22.57;15.50;;;10.10;99.90;;;;;;5011361;28;20210;-76
2023/04/29 01:28:14;;;;;;;18.97;14.20;;;10.00;99.90;;;;;;5011985;28;20191;-77
2023/04/29 01:30:50;;;;;;;24.60;15.33;;;10.00;99.90;;;;;;5011282;28;20199;-77
2023/04/29 01:33:23;;;;;;;19.83;15.13;;;10.00;99.90;;;;;;5010547;28;20195;-77
2023/04/29 01:36:08;;;;;;;18.30;12.97;;;10.10;99.90;;;;;;5010550;28;20218;-77
2023/04/29 01:38:40;;;;;;;19.73;14.37;;;10.20;99.90;;;;;;5011480;28;20222;-76
2023/04/29 01:41:16;;;;;;;17.87;13.47;;;10.10;99.90;;;;;;5011382;28;20199;-77
2023/04/29 01:43:47;;;;;;;19.23;14.20;;;10.10;99.90;;;;;;5010728;28;20234;-77
2023/04/29 01:46:18;;;;;;;19.10;15.17;;;10.10;99.90;;;;;;5011561;28;20198;-77
2023/04/29 01:48:45;;;;;;;21.73;14.37;;;10.10;99.90;;;;;;5011579;28;20234;-77
2023/04/29 01:51:12;;;;;;;14.97;12.87;;;10.10;99.90;;;;;;5010656;28;20203;-77
2023/04/29 01:53:39;;;;;;;20.07;14.20;;;10.00;99.90;;;;;;5011637;28;20295;-77
2023/04/29 01:56:07;;;;;;;22.70;14.27;;;10.10;99.90;;;;;;5011387;28;20203;-76
2023/04/29 01:58:35;;;;;;;18.60;13.53;;;10.10;99.90;;;;;;5010919;28;20207;-78
2023/04/29 02:01:02;;;;;;;19.07;14.00;;;10.10;99.90;;;;;;5011156;28;20282;-76
2023/04/29 02:03:29;;;;;;;25.67;13.70;;;10.20;99.90;;;;;;5011006;28;20583;-76
2023/04/29 02:05:56;;;;;;;21.87;14.57;;;10.20;99.90;;;;;;5011634;28;20206;-77
2023/04/29 02:08:23;;;;;;;18.43;12.70;;;10.20;99.90;;;;;;5010123;28;20632;-77
2023/04/29 02:10:54;;;;;;;19.57;14.00;;;10.20;99.90;;;;;;5011953;28;20623;-77
2023/04/29 02:13:21;;;;;;;19.83;13.30;;;10.20;99.90;;;;;;5010710;28;20222;-77
2023/04/29 02:15:49;;;;;;;18.60;14.33;;;10.20;99.90;;;;;;5011393;28;20290;-76
2023/04/29 02:18:16;;;;;;;20.27;14.23;;;10.20;99.90;;;;;;5011481;28;20291;-77
2023/04/29 02:20:43;;;;;;;25.00;14.43;;;10.20;99.90;;;;;;5010549;28;20207;-77
2023/04/29 02:23:10;;;;;;;19.63;13.67;;;10.20;99.90;;;;;;5010961;28;20195;-77
2023/04/29 02:25:37;;;;;;;19.87;13.90;;;10.20;99.90;;;;;;5011445;28;20565;-77
2023/04/29 02:28:04;;;;;;;19.23;13.90;;;10.20;99.90;;;;;;4992314;28;20211;-77
2023/04/29 02:30:30;;;;;;;20.37;12.87;;;10.20;99.90;;;;;;4991341;28;20298;-76
2023/04/29 02:32:59;;;;;;;26.17;14.20;;;10.30;99.90;;;;;;4993912;28;20288;-75
2023/04/29 02:35:26;;;;;;;18.43;12.80;;;10.30;99.90;;;;;;4991706;28;20267;-76
2023/04/29 02:37:52;;;;;;;25.47;14.73;;;10.30;99.90;;;;;;4995477;28;20196;-76
2023/04/29 02:40:19;;;;;;;26.47;15.07;;;10.30;99.90;;;;;;4994045;28;20601;-77
2023/04/29 02:42:46;;;;;;;21.60;15.37;;;10.40;99.90;;;;;;4994740;28;20188;-77
2023/04/29 02:45:13;;;;;;;27.90;16.53;;;10.30;99.90;;;;;;4994827;28;20877;-77
2023/04/29 02:47:40;;;;;;;29.70;16.73;;;10.30;99.90;;;;;;4988122;28;20205;-77
2023/04/29 02:50:09;;;;;;;22.43;15.80;;;10.30;99.90;;;;;;4974774;28;20211;-76
2023/04/29 02:52:36;;;;;;;32.97;17.53;;;10.30;99.90;;;;;;4975436;28;20212;-76
2023/04/29 02:55:03;;;;;;;27.67;17.47;;;10.30;99.90;;;;;;4975906;28;20287;-77
2023/04/29 02:57:30;;;;;;;26.23;17.77;;;10.30;99.90;;;;;;4990567;28;20211;-77
2023/04/29 02:59:57;;;;;;;29.97;16.63;;;10.30;99.90;;;;;;4994944;28;20212;-77
2023/04/29 03:02:24;;;;;;;29.53;17.60;;;10.20;99.90;;;;;;4995165;28;20230;-77
2023/04/29 03:04:52;;;;;;;28.63;17.90;;;10.20;99.90;;;;;;4992906;28;20216;-76
2023/04/29 03:07:20;;;;;;;27.27;16.90;;;10.20;99.90;;;;;;4995112;28;20289;-77
2023/04/29 03:09:47;;;;;;;31.97;18.50;;;10.10;99.90;;;;;;4994989;28;20287;-77
2023/04/29 03:12:15;;;;;;;30.97;18.27;;;10.10;99.90;;;;;;4993776;28;20200;-77
2023/04/29 03:14:42;;;;;;;32.40;19.67;;;10.10;99.90;;;;;;4993821;28;20220;-78
2023/04/29 03:17:09;;;;;;;31.07;18.77;;;10.10;99.90;;;;;;4994858;28;20231;-77
2023/04/29 03:19:36;;;;;;;25.17;17.10;;;10.10;99.90;;;;;;4992922;28;20228;-77
2023/04/29 03:22:03;;;;;;;27.73;17.40;;;10.10;99.90;;;;;;4994724;28;20196;-76
2023/04/29 03:24:31;;;;;;;25.63;17.30;;;10.10;99.90;;;;;;4993510;28;20222;-77
2023/04/29 03:26:59;;;;;;;31.27;18.20;;;10.00;99.90;;;;;;4993806;28;20481;-76
2023/04/29 03:29:27;;;;;;;30.93;19.53;;;10.00;99.90;;;;;;4992777;28;20200;-77
2023/04/29 03:31:55;;;;;;;27.03;17.87;;;10.00;99.90;;;;;;4974337;28;20188;-77
2023/04/29 03:34:22;;;;;;;28.97;17.83;;;10.00;99.90;;;;;;4984050;28;20274;-77
2023/04/29 03:36:50;;;;;;;27.73;17.60;;;10.00;99.90;;;;;;4994547;28;20684;-77
2023/04/29 03:39:16;;;;;;;27.23;18.40;;;10.00;99.90;;;;;;4993246;28;20302;-76
2023/04/29 03:41:46;;;;;;;27.70;17.17;;;10.00;99.90;;;;;;4993790;28;20212;-77
2023/04/29 03:44:14;;;;;;;28.20;17.70;;;9.90;99.90;;;;;;4993852;28;20624;-77
2023/04/29 03:46:41;;;;;;;27.30;17.13;;;10.00;99.90;;;;;;5001149;28;20221;-77
2023/04/29 03:49:07;;;;;;;24.20;17.27;;;10.00;99.90;;;;;;5013561;28;20199;-77
2023/04/29 03:51:35;;;;;;;25.73;17.57;;;9.90;99.90;;;;;;5013370;28;20214;-77
2023/04/29 03:54:02;;;;;;;29.00;17.83;;;9.90;99.90;;;;;;5012446;28;20209;-77
2023/04/29 03:56:28;;;;;;;25.27;17.07;;;9.90;99.90;;;;;;5012282;28;20196;-77
2023/04/29 03:58:57;;;;;;;24.53;16.57;;;9.90;99.90;;;;;;5013628;28;20328;-77
2023/04/29 04:01:24;;;;;;;30.17;17.60;;;10.00;99.90;;;;;;5012830;28;20500;-77
2023/04/29 04:03:51;;;;;;;28.80;17.97;;;9.90;99.90;;;;;;4998310;28;20243;-77
2023/04/29 04:06:18;;;;;;;26.67;17.00;;;10.00;99.90;;;;;;4993557;28;20200;-77
2023/04/29 04:08:45;;;;;;;29.90;17.13;;;9.90;99.90;;;;;;4993197;28;20286;-77
2023/04/29 04:11:14;;;;;;;28.17;17.33;;;9.80;99.90;;;;;;4993483;28;20298;-77
2023/04/29 04:13:41;;;;;;;23.80;16.57;;;9.80;99.90;;;;;;5010579;28;20298;-76
2023/04/29 04:16:10;;;;;;;26.40;17.63;;;9.80;99.90;;;;;;5011973;28;20658;-77
2023/04/29 04:18:38;;;;;;;29.30;16.50;;;9.80;99.90;;;;;;5012600;28;20203;-77
2023/04/29 04:21:09;;;;;;;27.17;16.50;;;9.80;99.90;;;;;;5012186;28;20615;-76
2023/04/29 04:23:36;;;;;;;29.90;18.43;;;9.80;99.90;;;;;;5013106;28;20199;-77
2023/04/29 04:26:03;;;;;;;25.67;18.23;;;9.70;99.90;;;;;;5011416;28;20226;-76
2023/04/29 04:28:30;;;;;;;25.07;17.27;;;9.70;99.90;;;;;;5011091;28;20611;-77
2023/04/29 04:30:57;;;;;;;26.70;16.80;;;9.70;99.90;;;;;;5012749;28;20205;-76
2023/04/29 04:33:26;;;;;;;29.10;18.67;;;9.70;99.90;;;;;;5010195;28;20729;-77
2023/04/29 04:35:53;;;;;;;23.97;16.43;;;9.70;99.90;;;;;;5011824;28;20228;-77
2023/04/29 04:38:20;;;;;;;30.03;17.23;;;9.80;99.90;;;;;;5008335;28;20295;-76
2023/04/29 04:40:47;;;;;;;22.97;16.53;;;9.80;99.90;;;;;;4992906;28;20275;-77
2023/04/29 04:43:14;;;;;;;28.67;15.97;;;9.80;99.90;;;;;;4992362;28;20246;-76
2023/04/29 04:45:41;;;;;;;27.10;17.90;;;9.80;99.90;;;;;;5005722;28;20277;-77
2023/04/29 04:48:08;;;;;;;30.60;17.23;;;9.80;99.90;;;;;;5012621;28;20195;-78
2023/04/29 04:50:36;;;;;;;22.40;16.07;;;9.70;99.90;;;;;;5012208;28;20199;-77
2023/04/29 04:53:03;;;;;;;23.87;15.73;;;9.70;99.90;;;;;;5012460;28;20195;-76
2023/04/29 04:55:32;;;;;;;26.40;15.70;;;9.70;99.90;;;;;;5010514;28;20290;-77
2023/04/29 04:57:59;;;;;;;24.53;15.93;;;9.70;99.90;;;;;;5011750;28;20217;-77
2023/04/29 05:00:25;;;;;;;22.47;15.07;;;9.70;99.90;;;;;;5011774;28;20294;-77
2023/04/29 05:02:52;;;;;;;26.80;15.97;;;9.70;99.90;;;;;;5012288;28;20325;-76
2023/04/29 05:05:19;;;;;;;24.07;13.93;;;9.60;99.90;;;;;;5011015;28;20223;-77
2023/04/29 05:07:47;;;;;;;24.30;14.50;;;9.70;99.90;;;;;;5011699;28;20229;-77
2023/04/29 05:10:14;;;;;;;25.37;13.87;;;9.70;99.90;;;;;;5011809;28;20196;-77
2023/04/29 05:12:41;;;;;;;24.73;13.90;;;9.80;99.90;;;;;;5012228;28;20269;-77
2023/04/29 05:15:09;;;;;;;24.50;14.50;;;9.80;99.90;;;;;;4994611;28;20566;-77
2023/04/29 05:17:36;;;;;;;22.50;13.10;;;9.70;99.90;;;;;;4991264;28;20206;-77
2023/04/29 05:20:04;;;;;;;24.87;13.40;;;9.70;99.90;;;;;;4991404;28;20247;-77
2023/04/29 05:22:31;;;;;;;22.73;12.97;;;9.70;99.90;;;;;;5003612;28;20214;-77
2023/04/29 05:25:02;;;;;;;22.00;13.23;;;9.70;99.90;;;;;;5011533;28;20237;-77
2023/04/29 05:27:29;;;;;;;23.07;12.47;;;9.70;99.90;;;;;;5012051;28;20558;-77
2023/04/29 05:29:56;;;;;;;25.93;13.07;;;9.70;99.90;;;;;;5010795;28;20854;-77
2023/04/29 05:32:23;;;;;;;27.70;12.23;;;9.70;99.90;;;;;;5011024;28;20298;-78
2023/04/29 05:34:50;;;;;;;20.97;13.00;;;9.70;99.90;;;;;;5011907;28;20227;-77
2023/04/29 05:37:17;;;;;;;22.13;12.03;;;9.80;99.90;;;;;;5010842;28;20238;-77
2023/04/29 05:39:44;;;;;;;24.87;14.40;;;9.80;99.90;;;;;;5011211;28;20206;-78
2023/04/29 05:42:12;;;;;;;22.47;13.87;;;9.80;99.90;;;;;;5011727;28;20203;-77
2023/04/29 05:44:39;;;;;;;22.93;12.37;;;9.80;99.90;;;;;;5010402;28;20309;-77
2023/04/29 05:47:06;;;;;;;22.53;12.57;;;9.80;99.90;;;;;;5011210;28;20203;-77
2023/04/29 05:49:33;;;;;;;22.30;11.97;;;9.80;99.90;;;;;;5011768;28;20203;-77
2023/04/29 05:52:02;;;;;;;20.13;11.60;;;9.80;99.90;;;;;;5010586;28;20213;-77
2023/04/29 05:54:29;;;;;;;20.37;11.30;;;9.80;99.90;;;;;;5011198;28;20199;-75
2023/04/29 05:56:56;;;;;;;22.87;11.80;;;9.80;99.90;;;;;;5010268;28;20206;-76
2023/04/29 05:59:25;;;;;;;21.60;11.33;;;9.80;99.90;;;;;;5011503;28;20204;-77
2023/04/29 06:01:52;;;;;;;19.47;10.97;;;9.90;99.90;;;;;;5011608;28;20216;-77
2023/04/29 06:04:19;;;;;;;19.13;10.87;;;9.90;99.90;;;;;;5010565;28;20206;-77
2023/04/29 06:06:46;;;;;;;14.23;10.53;;;10.00;99.90;;;;;;5010218;28;20209;-77
2023/04/29 06:09:14;;;;;;;16.00;10.13;;;10.10;99.90;;;;;;5015121;28;20211;-78
2023/04/29 06:11:41;;;;;;;18.57;11.13;;;10.20;99.90;;;;;;5015392;28;20203;-75
2023/04/29 06:14:08;;;;;;;18.43;10.20;;;10.20;99.90;;;;;;5013590;28;20295;-76
2023/04/29 06:16:49;;;;;;;21.60;11.40;;;10.40;99.90;;;;;;5015481;28;20579;-79
2023/04/29 06:19:16;;;;;;;18.60;11.00;;;10.50;99.90;;;;;;5038888;23;20332;-78
2023/04/29 06:21:43;;;;;;;18.00;9.33;;;10.60;99.90;;;;;;5031907;28;20221;-77
2023/04/29 06:24:10;;;;;;;15.80;9.43;;;10.80;99.90;;;;;;5034516;28;20203;-77
2023/04/29 06:26:36;;;;;;;15.40;9.30;;;10.90;99.90;;;;;;5034677;28;20282;-78
2023/04/29 06:29:04;;;;;;;12.27;9.13;;;11.10;99.90;;;;;;5032851;28;20202;-77
2023/04/29 06:31:31;;;;;;;18.33;9.13;;;11.30;99.90;;;;;;5033953;28;20283;-77
2023/04/29 06:33:59;;;;;;;12.47;8.63;;;11.60;99.90;;;;;;5034232;28;20198;-77
2023/04/29 06:36:27;;;;;;;14.93;9.20;;;11.70;99.90;;;;;;5034249;28;20218;-78
2023/04/29 06:38:53;;;;;;;11.40;7.80;;;12.00;99.90;;;;;;5033504;28;20212;-78
2023/04/29 06:41:20;;;;;;;15.40;9.40;;;12.30;99.90;;;;;;5034969;28;20285;-77
2023/04/29 06:43:47;;;;;;;14.93;9.20;;;12.40;99.90;;;;;;5032812;28;20629;-77
2023/04/29 06:46:14;;;;;;;15.73;9.20;;;12.70;99.90;;;;;;5033761;28;20243;-78
2023/04/29 06:48:41;;;;;;;15.47;9.20;;;12.60;99.90;;;;;;5033272;28;20595;-77
2023/04/29 06:51:10;;;;;;;10.27;8.23;;;12.50;99.90;;;;;;5034545;28;20207;-80
2023/04/29 06:53:36;;;;;;;11.30;7.90;;;12.60;99.90;;;;;;5024222;28;20215;-77
2023/04/29 06:56:04;;;;;;;12.63;8.10;;;12.70;99.90;;;;;;5013811;28;20215;-78
2023/04/29 06:58:31;;;;;;;12.27;8.07;;;12.80;99.90;;;;;;5014014;28;20198;-77
2023/04/29 07:00:58;;;;;;;10.97;8.00;;;13.00;99.90;;;;;;5015181;28;20234;-78
2023/04/29 07:03:25;;;;;;;15.80;7.97;;;13.00;99.90;;;;;;5014429;28;20215;-78
2023/04/29 07:05:52;;;;;;;14.77;7.70;;;13.10;99.90;;;;;;5014552;28;20247;-77
2023/04/29 07:08:20;;;;;;;11.37;7.60;;;13.20;99.90;;;;;;5009251;28;20209;-78
2023/04/29 07:14:09;;;;;;;13.03;8.83;;;13.60;99.90;;;;;;5007085;28;20376;-76
2023/04/29 07:16:36;;;;;;;12.17;7.93;;;13.70;99.90;;;;;;5036553;28;20290;-77
2023/04/29 07:19:03;;;;;;;11.23;7.40;;;13.60;99.90;;;;;;5031285;28;20681;-76
2023/04/29 07:21:30;;;;;;;11.18;7.78;;;13.80;99.90;;;;;;5017008;28;20230;-76
2023/04/29 07:24:01;;;;;;;13.23;8.17;;;13.80;99.90;;;;;;5013887;28;20226;-78
2023/04/29 07:26:28;;;;;;;11.20;7.80;;;13.80;99.90;;;;;;5013755;28;20219;-78
2023/04/29 07:28:55;;;;;;;10.37;7.97;;;13.90;99.90;;;;;;5012068;28;20200;-78
2023/04/29 07:31:21;;;;;;;9.68;6.72;;;14.20;99.90;;;;;;5024308;28;20225;-78
2023/04/29 07:33:48;;;;;;;9.50;7.55;;;14.30;99.90;;;;;;5033200;28;20194;-77
2023/04/29 07:36:15;;;;;;;10.37;7.00;;;14.20;99.90;;;;;;5032686;28;20202;-77
2023/04/29 07:38:42;;;;;;;10.57;7.38;;;14.30;99.90;;;;;;5033339;28;20325;-78
2023/04/29 07:41:10;;;;;;;12.95;7.95;;;14.30;99.90;;;;;;5020593;28;20206;-78
2023/04/29 07:43:37;;;;;;;8.93;7.15;;;14.40;99.90;;;;;;5033754;28;20214;-77
2023/04/29 07:46:04;;;;;;;9.70;7.15;;;14.70;99.90;;;;;;5013651;28;20619;-77
2023/04/29 07:48:37;;;;;;;10.10;7.35;;;14.60;99.90;;;;;;5012722;28;20282;-77
2023/04/29 07:51:04;;;;;;;11.07;7.07;;;14.80;99.90;;;;;;5026743;28;20199;-77
2023/04/29 07:53:31;;;;;;;8.85;6.63;;;15.00;99.90;;;;;;5031251;28;20205;-76
2023/04/29 07:55:57;;;;;;;9.70;6.40;;;15.00;99.90;;;;;;5022855;28;20211;-77
2023/04/29 07:58:27;;;;;;;11.55;6.47;;;14.90;99.90;;;;;;5011640;28;20207;-76
2023/04/29 08:00:54;;;;;;;8.65;5.80;;;14.90;99.90;;;;;;5011415;28;20207;-77
2023/04/29 08:03:21;;;;;;;10.27;6.40;;;15.20;99.90;;;;;;5012756;28;20211;-77
2023/04/29 08:05:50;;;;;;;8.48;6.57;;;15.50;99.90;;;;;;5013506;28;20233;-77
2023/04/29 08:08:16;;;;;;;9.05;5.95;;;15.60;99.90;;;;;;5012690;28;20203;-77
2023/04/29 08:10:43;;;;;;;7.32;6.15;;;15.50;99.90;;;;;;5012361;28;20511;-75
2023/04/29 08:13:10;;;;;;;10.73;6.57;;;15.70;99.90;;;;;;5021057;28;20202;-77
2023/04/29 08:15:38;;;;;;;8.65;6.10;;;15.90;99.90;;;;;;5032708;28;20203;-77
2023/04/29 08:18:05;;;;;;;6.75;5.70;;;15.80;99.90;;;;;;5032874;28;20206;-77
2023/04/29 08:20:33;;;;;;;7.85;5.28;;;16.00;99.90;;;;;;5013325;28;20242;-77
2023/04/29 08:23:00;;;;;;;8.65;4.60;;;16.30;99.90;;;;;;5012279;28;20282;-77
2023/04/29 08:25:28;;;;;;;8.13;4.18;;;16.20;99.90;;;;;;5012862;28;20223;-77
2023/04/29 08:27:54;;;;;;;7.10;4.43;;;16.30;99.90;;;;;;5011983;28;20333;-77
2023/04/29 08:30:21;;;;;;;6.70;3.50;;;16.00;99.90;;;;;;5012184;28;20206;-78
2023/04/29 08:32:50;;;;;;;7.60;4.05;;;16.10;99.90;;;;;;5012763;28;20192;-77
2023/04/29 08:35:17;;;;;;;6.88;4.07;;;16.40;99.90;;;;;;5023320;28;20210;-77
2023/04/29 08:37:44;;;;;;;5.80;3.95;;;16.30;99.90;;;;;;5032666;28;20199;-77
2023/04/29 08:40:13;;;;;;;6.22;4.20;;;16.40;99.90;;;;;;5032221;28;20187;-78
2023/04/29 08:42:40;;;;;;;7.68;4.05;;;16.60;99.90;;;;;;5023784;28;20217;-78
2023/04/29 08:45:07;;;;;;;9.45;3.95;;;16.50;99.90;;;;;;5012664;28;20211;-78
2023/04/29 08:47:34;;;;;;;7.50;4.53;;;16.50;99.90;;;;;;5011687;28;20210;-78
2023/04/29 08:50:04;;;;;;;12.32;4.68;;;16.50;99.90;;;;;;5011601;28;20253;-77
2023/04/29 08:52:31;;;;;;;6.18;4.47;;;16.40;99.90;;;;;;5022695;23;20203;-76
2023/04/29 08:55:01;;;;;;;5.93;4.00;;;16.30;99.90;;;;;;5036964;28;20210;-77
2023/04/29 08:57:29;;;;;;;8.90;4.32;;;16.30;99.90;;;;;;5031609;28;20268;-77
2023/04/29 08:59:59;;;;;;;10.38;5.35;;;16.30;99.90;;;;;;5031619;28;20289;-77
2023/04/29 09:02:26;;;;;;;10.05;5.50;;;16.30;99.90;;;;;;5031455;28;20226;-76
2023/04/29 09:05:01;;;;;;;7.40;4.70;;;16.10;99.90;;;;;;5032421;28;20198;-77
2023/04/29 09:07:31;;;;;;;8.35;5.43;;;15.90;99.90;;;;;;5032237;28;20217;-78
2023/04/29 09:09:59;;;;;;;8.02;5.68;;;16.10;99.90;;;;;;5031412;28;20281;-78
2023/04/29 09:12:26;;;;;;;9.23;5.72;;;16.20;99.90;;;;;;5031451;28;20229;-77
2023/04/29 09:14:53;;;;;;;6.53;5.07;;;15.80;99.90;;;;;;5032115;28;20579;-77
2023/04/29 09:17:20;;;;;;;12.80;5.65;;;15.70;99.90;;;;;;5031384;28;20201;-78
2023/04/29 09:19:47;;;;;;;9.77;5.07;;;15.90;99.90;;;;;;5031714;28;20241;-77
2023/04/29 09:22:13;;;;;;;10.98;5.25;;;16.10;99.90;;;;;;5031567;28;20224;-78
2023/04/29 09:24:43;;;;;;;7.28;4.78;;;16.30;99.90;;;;;;5030753;28;20614;-77
2023/04/29 09:27:10;;;;;;;8.13;4.90;;;16.40;99.90;;;;;;5032037;28;20665;-77
2023/04/29 09:29:38;;;;;;;7.30;4.32;;;16.40;99.90;;;;;;5031306;28;20667;-77
2023/04/29 09:32:20;;;;;;;10.98;5.90;;;16.50;99.90;;;;;;5031367;28;20205;-77
2023/04/29 09:34:47;;;;;;;9.63;6.15;;;16.10;99.90;;;;;;5032306;28;20668;-76
2023/04/29 09:37:25;;;;;;;14.10;6.70;;;16.20;99.90;;;;;;5031030;28;20191;-77
2023/04/29 09:39:53;;;;;;;6.97;5.88;;;16.20;99.90;;;;;;5031362;28;20206;-77
2023/04/29 09:42:20;;;;;;;10.02;5.38;;;16.50;99.90;;;;;;5034410;28;20225;-77
2023/04/29 09:44:47;;;;;;;5.90;4.22;;;16.80;99.90;;;;;;5035314;28;20331;-77
2023/04/29 09:47:14;;;;;;;8.68;4.75;;;16.90;99.90;;;;;;5035650;28;20249;-78
2023/04/29 09:49:44;;;;;;;9.00;4.50;;;17.10;99.90;;;;;;5035131;28;20206;-77
2023/04/29 09:52:12;;;;;;;7.45;4.30;;;16.90;99.90;;;;;;5035033;28;20301;-77
2023/04/29 09:54:41;;;;;;;10.00;4.50;;;17.20;99.90;;;;;;5035190;28;20249;-77
2023/04/29 09:57:10;;;;;;;8.35;4.07;;;17.30;99.90;;;;;;5035258;28;20205;-78
2023/04/29 09:59:39;;;;;;;9.10;4.63;;;17.50;99.90;;;;;;5034289;28;20198;-78
2023/04/29 10:02:10;;;;;;;7.30;3.95;;;17.20;99.90;;;;;;5034922;28;20225;-77
2023/04/29 10:04:40;;;;;;;5.40;3.72;;;17.20;99.90;;;;;;5035391;28;20202;-76
2023/04/29 10:07:08;;;;;;;7.72;4.68;;;17.30;99.90;;;;;;5034610;28;20230;-78
2023/04/29 10:09:39;;;;;;;6.47;3.78;;;17.40;99.90;;;;;;5034914;28;20210;-78
2023/04/29 10:12:08;;;;;;;6.70;4.20;;;17.70;99.90;;;;;;5035421;28;20289;-77
2023/04/29 10:14:55;;;;;;;9.50;4.05;;;17.80;99.90;;;;;;5034165;28;20213;-77
2023/04/29 10:17:27;;;;;;;6.47;4.10;;;17.90;99.90;;;;;;5035199;28;20606;-78
2023/04/29 10:20:00;;;;;;;7.53;4.25;;;18.00;99.90;;;;;;5034450;28;20195;-77
2023/04/29 10:22:33;;;;;;;7.45;4.55;;;18.10;99.90;;;;;;5034755;28;20285;-77
2023/04/29 10:25:01;;;;;;;9.32;4.68;;;17.90;99.90;;;;;;5034968;28;20590;-77
2023/04/29 10:27:33;;;;;;;7.20;4.43;;;17.70;99.90;;;;;;5037809;28;20221;-77
2023/04/29 10:30:03;;;;;;;7.10;4.03;;;17.60;99.90;;;;;;5055053;28;20305;-76
2023/04/29 10:32:32;;;;;;;8.65;4.32;;;17.80;99.90;;;;;;5054496;28;20194;-77
2023/04/29 10:35:01;;;;;;;9.65;4.25;;;17.80;99.90;;;;;;5046632;28;20206;-77
2023/04/29 10:37:28;;;;;;;5.70;3.95;;;17.90;99.90;;;;;;5034972;28;20282;-77
2023/04/29 10:40:03;;;;;;;5.50;3.60;;;17.90;99.90;;;;;;5034641;28;20201;-77
2023/04/29 10:42:39;;;;;;;8.63;3.88;;;17.60;99.90;;;;;;5046989;28;20589;-77
2023/04/29 10:45:19;;;;;;;8.00;3.53;;;17.50;99.90;;;;;;5053043;28;20591;-77
2023/04/29 10:48:14;;;;;;;8.85;4.15;;;17.60;99.90;;;;;;5034034;28;20219;-77
2023/04/29 10:51:01;;;;;;;6.15;3.33;;;17.90;99.90;;;;;;5033659;28;20202;-79
2023/04/29 10:53:28;;;;;;;6.78;3.78;;;18.10;99.90;;;;;;5033516;28;20831;-76
2023/04/29 10:55:58;;;;;;;7.97;4.22;;;18.40;99.90;;;;;;5034026;28;20190;-78
2023/04/29 10:58:38;;;;;;;9.80;4.38;;;18.40;99.90;;;;;;5039531;28;20288;-77
2023/04/29 11:01:06;;;;;;;7.65;3.90;;;18.20;99.90;;;;;;5054378;28;20209;-77
2023/04/29 11:03:48;;;;;;;6.50;3.40;;;18.10;99.90;;;;;;5053046;28;20232;-77
2023/04/29 11:06:15;;;;;;;7.93;3.55;;;18.10;99.90;;;;;;5034080;28;20634;-77
2023/04/29 11:08:43;;;;;;;7.70;3.90;;;18.10;99.90;;;;;;5034592;28;20269;-77
2023/04/29 11:11:13;;;;;;;4.82;3.90;;;18.20;99.90;;;;;;5035602;28;20827;-77
2023/04/29 11:13:45;;;;;;;6.65;4.40;;;18.20;99.90;;;;;;5054181;28;20236;-77
2023/04/29 11:16:12;;;;;;;6.47;3.70;;;18.20;99.90;;;;;;5051142;28;20190;-78
2023/04/29 11:19:07;;;;;;;8.27;3.58;;;18.00;99.90;;;;;;5033718;28;20607;-77
2023/04/29 11:21:35;;;;;;;6.13;3.30;;;18.00;99.90;;;;;;5033948;28;20203;-78
2023/04/29 11:24:03;;;;;;;9.23;3.80;;;18.10;99.90;;;;;;5033285;28;20199;-77
2023/04/29 11:26:30;;;;;;;5.18;3.47;;;18.00;99.90;;;;;;5053070;28;20226;-77
2023/04/29 11:29:00;;;;;;;5.85;3.63;;;18.00;99.90;;;;;;5053119;28;20296;-77
2023/04/29 11:31:28;;;;;;;12.38;3.85;;;18.10;99.90;;;;;;5039202;28;20202;-76
2023/04/29 11:33:55;;;;;;;8.45;3.85;;;18.10;99.90;;;;;;5033732;28;20202;-77
2023/04/29 11:36:22;;;;;;;7.68;3.35;;;18.10;99.90;;;;;;5033256;28;20191;-77
2023/04/29 11:38:49;;;;;;;10.70;3.70;;;17.60;99.90;;;;;;5032385;28;20286;-77
2023/04/29 11:41:16;;;;;;;8.18;3.60;;;17.40;99.90;;;;;;5033100;28;20575;-77
2023/04/29 11:43:46;;;;;;;5.55;2.83;;;17.40;99.90;;;;;;5033901;28;20206;-76
2023/04/29 11:46:15;;;;;;;5.97;3.33;;;17.30;99.90;;;;;;5047700;28;20316;-77
2023/04/29 11:48:49;;;;;;;6.72;2.75;;;17.50;99.90;;;;;;5052837;28;20202;-77
2023/04/29 11:51:17;;;;;;;7.93;3.13;;;17.70;99.90;;;;;;5050765;28;20622;-77
2023/04/29 11:53:45;;;;;;;7.20;2.83;;;17.80;99.90;;;;;;5053304;28;20226;-76
2023/04/29 11:56:12;;;;;;;6.97;3.28;;;17.80;99.90;;;;;;5052984;28;20205;-77
2023/04/29 11:58:39;;;;;;;6.55;2.90;;;17.80;99.90;;;;;;5052686;28;20293;-76
2023/04/29 12:01:06;;;;;;;6.95;3.63;;;17.90;99.90;;;;;;5034413;28;20213;-77
2023/04/29 12:03:35;;;;;;;9.15;3.70;;;18.00;99.90;;;;;;5032613;28;20712;-75
2023/04/29 12:06:02;;;;;;;5.10;3.05;;;18.00;99.90;;;;;;5031190;28;20195;-77
2023/04/29 12:08:32;;;;;;;8.73;3.22;;;18.00;99.90;;;;;;5052361;28;20217;-77
2023/04/29 12:11:00;;;;;;;7.10;3.20;;;17.90;99.90;;;;;;5052939;28;20201;-77
2023/04/29 12:13:28;;;;;;;6.72;3.05;;;17.80;99.90;;;;;;5048813;28;20214;-76
2023/04/29 12:15:57;;;;;;;6.63;2.97;;;17.60;99.90;;;;;;5032068;28;20290;-77
2023/04/29 12:18:26;;;;;;;7.03;3.05;;;17.50;99.90;;;;;;5032511;28;20206;-78
2023/04/29 12:20:55;;;;;;;8.10;3.13;;;17.60;99.90;;;;;;5031904;28;20213;-77
2023/04/29 12:23:25;;;;;;;5.13;3.20;;;17.60;99.90;;;;;;5032805;28;20270;-77
2023/04/29 12:25:54;;;;;;;10.93;3.90;;;17.60;99.90;;;;;;5032470;28;20622;-77
2023/04/29 12:28:21;;;;;;;8.52;3.10;;;17.70;99.90;;;;;;5031012;28;20226;-76
2023/04/29 12:30:49;;;;;;;5.25;2.88;;;17.70;99.90;;;;;;5051640;28;20286;-76
2023/04/29 12:33:20;;;;;;;6.65;3.30;;;17.80;99.90;;;;;;5051959;28;20579;-75
2023/04/29 12:35:48;;;;;;;7.80;4.32;;;17.90;99.90;;;;;;5052723;28;20301;-76
2023/04/29 12:38:21;;;;;;;9.30;4.20;;;18.10;99.90;;;;;;5047592;28;20195;-77
2023/04/29 12:40:48;;;;;;;10.38;3.63;;;18.00;99.90;;;;;;5031270;28;20245;-76
2023/04/29 12:43:15;;;;;;;6.22;3.50;;;17.90;99.90;;;;;;5047906;28;20198;-76
2023/04/29 12:45:42;;;;;;;8.90;3.08;;;17.80;99.90;;;;;;5052541;28;20212;-76
2023/04/29 12:48:11;;;;;;;7.82;3.60;;;17.90;99.90;;;;;;5051395;28;20230;-76